Time;durP1;ratioP1;P1;durP2;ratioP2;P2;SDS_P1;SDS_P2;PMS_P1;PMS_P2;Temp;Humidity;BMP_temperature;BMP_pressure;BME280_temperature;BME280_humidity;BME280_pressure;Samples;Min_cycle;Max_cycle;Signal;HPM_P1;HPM_P2
2021/12/10 00:00:54;;;;;;;;;;;;;;;3.02;92.65332;99760.66;;;;-84
2021/12/10 00:01:52;;;;;;;18.3;7.6;;;;;;;;;;;;;-81
2021/12/10 00:05:54;;;;;;;;;;;;;;;2.98;92.73242;99749.63;;;;-81
2021/12/10 00:10:50;;;;;;;;;;;;;;;2.96;92.62012;99738.95;;;;-82
2021/12/10 00:15:51;;;;;;;;;;;;;;;2.93;92.49316;99735.78;;;;-80
2021/12/10 00:20:56;;;;;;;;;;;;;;;2.88;92.375;99729;;;;-82
2021/12/10 00:25:50;;;;;;;;;;;;;;;2.85;92.23047;99722.05;;;;-81
2021/12/10 00:30:59;;;;;;;;;;;;;;;2.83;92.1709;99711.45;;;;-80
2021/12/10 00:31:51;;;;;;;17;5.5;;;;;;;;;;;;;-80
2021/12/10 00:35:49;;;;;;;;;;;;;;;2.8;92.24023;99703.36;;;;-81
2021/12/10 00:40:49;;;;;;;;;;;;;;;2.78;92.27832;99693.13;;;;-81
2021/12/10 00:50:50;;;;;;;;;;;;;;;2.74;92.20508;99685.53;;;;-80
2021/12/10 00:55:49;;;;;;;;;;;;;;;2.73;92.19238;99674.69;;;;-80
2021/12/10 01:00:54;;;;;;;;;;;;;;;2.72;92.29883;99666.38;;;;-81
2021/12/10 01:01:49;;;;;;;16;5.5;;;;;;;;;;;;;-80
2021/12/10 01:05:52;;;;;;;;;;;;;;;2.73;92.34375;99655.89;;;;-83
2021/12/10 01:10:52;;;;;;;;;;;;;;;2.74;92.40039;99647.53;;;;-82
2021/12/10 01:16:07;;;;;;;;;;;;;;;2.75;92.36914;99639.52;;;;-81
2021/12/10 01:26:07;;;;;;;;;;;;;;;2.74;92.26855;99613.95;;;;-81
2021/12/10 01:30:49;;;;;;;;;;;;;;;2.72;92.24414;99600.7;;;;-82
2021/12/10 01:31:48;;;;;;;14.7;6.4;;;;;;;;;;;;;-82
2021/12/10 01:35:54;;;;;;;;;;;;;;;2.7;92.19727;99601.59;;;;-85
2021/12/10 01:40:53;;;;;;;;;;;;;;;2.69;92.19141;99598.73;;;;-83
2021/12/10 01:45:49;;;;;;;;;;;;;;;2.69;92.10449;99592.2;;;;-81
2021/12/10 01:50:49;;;;;;;;;;;;;;;2.68;92.15918;99585.59;;;;-81
2021/12/10 01:55:50;;;;;;;;;;;;;;;2.67;92.04883;99575.59;;;;-81
2021/12/10 02:00:52;;;;;;;;;;;;;;;2.66;92.03613;99561.41;;;;-81
2021/12/10 02:01:48;;;;;;;20.1;7.5;;;;;;;;;;;;;-80
2021/12/10 02:05:49;;;;;;;;;;;;;;;2.65;92.01074;99560.02;;;;-81
2021/12/10 02:10:50;;;;;;;;;;;;;;;2.64;91.96582;99547.17;;;;-81
2021/12/10 02:15:49;;;;;;;;;;;;;;;2.61;91.87305;99539.96;;;;-81
2021/12/10 02:21:09;;;;;;;;;;;;;;;2.59;91.86914;99539.55;;;;-82
2021/12/10 02:25:50;;;;;;;;;;;;;;;2.58;91.80176;99536.89;;;;-80
2021/12/10 02:30:50;;;;;;;;;;;;;;;2.56;91.80859;99533.05;;;;-81
2021/12/10 02:31:44;;;;;;;18.8;7.6;;;;;;;;;;;;;-81
2021/12/10 02:35:49;;;;;;;;;;;;;;;2.52;91.72559;99515.61;;;;-81
2021/12/10 02:40:50;;;;;;;;;;;;;;;2.49;91.69824;99503.25;;;;-82
2021/12/10 02:45:51;;;;;;;;;;;;;;;2.46;91.64746;99494.22;;;;-82
2021/12/10 02:50:49;;;;;;;;;;;;;;;2.42;91.55273;99492.7;;;;-82
2021/12/10 02:55:49;;;;;;;;;;;;;;;2.39;91.46973;99480.64;;;;-81
2021/12/10 03:00:51;;;;;;;;;;;;;;;2.34;91.48145;99477.91;;;;-80
2021/12/10 03:01:46;;;;;;;16.7;7.1;;;;;;;;;;;;;-81
2021/12/10 03:05:49;;;;;;;;;;;;;;;2.31;91.45215;99469.95;;;;-81
2021/12/10 03:10:49;;;;;;;;;;;;;;;2.28;91.41309;99457.24;;;;-81
2021/12/10 03:15:50;;;;;;;;;;;;;;;2.24;91.40625;99459.22;;;;-81
2021/12/10 03:20:49;;;;;;;;;;;;;;;2.2;91.3877;99452.95;;;;-81
2021/12/10 03:25:49;;;;;;;;;;;;;;;2.17;91.37988;99442.52;;;;-80
2021/12/10 03:30:52;;;;;;;;;;;;;;;2.15;91.43164;99429.59;;;;-80
2021/12/10 03:31:42;;;;;;;13.6;5.7;;;;;;;;;;;;;-81
2021/12/10 03:35:50;;;;;;;;;;;;;;;2.14;91.48047;99415.94;;;;-81
2021/12/10 03:40:49;;;;;;;;;;;;;;;2.13;91.52344;99407.39;;;;-80
2021/12/10 03:45:50;;;;;;;;;;;;;;;2.11;91.56055;99398.45;;;;-81
2021/12/10 03:50:50;;;;;;;;;;;;;;;2.11;91.64746;99384.97;;;;-80
2021/12/10 03:55:49;;;;;;;;;;;;;;;2.1;91.57129;99380.98;;;;-81
2021/12/10 04:00:50;;;;;;;;;;;;;;;2.08;91.59961;99375.46;;;;-81
2021/12/10 04:01:42;;;;;;;10;4.7;;;;;;;;;;;;;-82
2021/12/10 04:05:49;;;;;;;;;;;;;;;2.09;91.68652;99362.7;;;;-81
2021/12/10 04:10:49;;;;;;;;;;;;;;;2.09;91.66504;99355.55;;;;-81
2021/12/10 04:15:50;;;;;;;;;;;;;;;2.08;91.70801;99353.55;;;;-81
2021/12/10 04:20:50;;;;;;;;;;;;;;;2.09;91.7627;99343.53;;;;-83
2021/12/10 04:25:49;;;;;;;;;;;;;;;2.13;91.82422;99336.44;;;;-81
2021/12/10 04:30:52;;;;;;;;;;;;;;;2.12;91.80273;99332.01;;;;-80
2021/12/10 04:31:39;;;;;;;9;3.9;;;;;;;;;;;;;-80
2021/12/10 04:35:52;;;;;;;;;;;;;;;2.12;91.78027;99311.01;;;;-80
2021/12/10 04:40:50;;;;;;;;;;;;;;;2.13;91.80469;99301.52;;;;-84
2021/12/10 04:45:49;;;;;;;;;;;;;;;2.17;91.8125;99301.23;;;;-84
2021/12/10 04:50:51;;;;;;;;;;;;;;;2.17;91.75977;99291.73;;;;-85
2021/12/10 04:55:55;;;;;;;;;;;;;;;2.2;91.76367;99280.55;;;;-84
2021/12/10 05:00:51;;;;;;;;;;;;;;;2.2;91.70996;99280.32;;;;-84
2021/12/10 05:01:42;;;;;;;7.2;2.9;;;;;;;;;;;;;-84
2021/12/10 05:05:48;;;;;;;;;;;;;;;2.21;91.74414;99276.52;;;;-82
2021/12/10 05:10:50;;;;;;;;;;;;;;;2.23;91.72852;99272.25;;;;-84
2021/12/10 05:15:57;;;;;;;;;;;;;;;2.24;91.68652;99266.76;;;;-85
2021/12/10 05:20:50;;;;;;;;;;;;;;;2.24;91.69824;99269.69;;;;-84
2021/12/10 05:25:50;;;;;;;;;;;;;;;2.3;91.65723;99267.59;;;;-83
2021/12/10 05:30:54;;;;;;;;;;;;;;;2.32;91.57422;99259.44;;;;-81
2021/12/10 05:31:39;;;;;;;9.4;2.9;;;;;;;;;;;;;-80
2021/12/10 05:35:50;;;;;;;;;;;;;;;2.34;91.5459;99261.31;;;;-80
2021/12/10 05:40:51;;;;;;;;;;;;;;;2.35;91.53906;99257.29;;;;-80
2021/12/10 05:45:51;;;;;;;;;;;;;;;2.38;91.48047;99257.7;;;;-81
2021/12/10 05:50:49;;;;;;;;;;;;;;;2.39;91.41504;99257.91;;;;-82
2021/12/10 05:55:49;;;;;;;;;;;;;;;2.39;91.39355;99253.13;;;;-82
2021/12/10 06:00:50;;;;;;;;;;;;;;;2.38;91.44727;99256.56;;;;-80
2021/12/10 06:01:36;;;;;;;8.3;2.3;;;;;;;;;;;;;-82
2021/12/10 06:05:51;;;;;;;;;;;;;;;2.39;91.45801;99251.66;;;;-82
2021/12/10 06:10:50;;;;;;;;;;;;;;;2.39;91.49316;99252.02;;;;-81
2021/12/10 06:15:49;;;;;;;;;;;;;;;2.39;91.48047;99249.2;;;;-81
2021/12/10 06:20:50;;;;;;;;;;;;;;;2.4;91.44043;99246.98;;;;-83
2021/12/10 06:25:49;;;;;;;;;;;;;;;2.39;91.43652;99248.82;;;;-82
2021/12/10 06:30:50;;;;;;;;;;;;;;;2.4;91.39551;99247.88;;;;-82
2021/12/10 06:31:35;;;;;;;5.8;2.2;;;;;;;;;;;;;-82
2021/12/10 06:35:50;;;;;;;;;;;;;;;2.39;91.38281;99243.67;;;;-82
2021/12/10 06:40:50;;;;;;;;;;;;;;;2.39;91.40625;99251.04;;;;-81
2021/12/10 06:45:51;;;;;;;;;;;;;;;2.4;91.41699;99255.34;;;;-82
2021/12/10 06:50:51;;;;;;;;;;;;;;;2.39;91.40625;99261.13;;;;-82
2021/12/10 06:55:49;;;;;;;;;;;;;;;2.39;91.40625;99264.72;;;;-82
2021/12/10 07:00:50;;;;;;;;;;;;;;;2.4;91.37598;99264.98;;;;-81
2021/12/10 07:01:35;;;;;;;6.9;2.5;;;;;;;;;;;;;-82
2021/12/10 07:05:50;;;;;;;;;;;;;;;2.4;91.35449;99264.02;;;;-82
2021/12/10 07:10:50;;;;;;;;;;;;;;;2.4;91.32129;99259.61;;;;-81
2021/12/10 07:15:50;;;;;;;;;;;;;;;2.4;91.25684;99260.1;;;;-82
2021/12/10 07:21:04;;;;;;;;;;;;;;;2.4;91.22461;99264.17;;;;-82
2021/12/10 07:25:50;;;;;;;;;;;;;;;2.41;91.20215;99271.93;;;;-82
2021/12/10 07:30:49;;;;;;;;;;;;;;;2.41;91.20215;99270.73;;;;-82
2021/12/10 07:31:32;;;;;;;7.4;2.4;;;;;;;;;;;;;-82
2021/12/10 07:35:51;;;;;;;;;;;;;;;2.41;91.20215;99272.68;;;;-82
2021/12/10 07:40:54;;;;;;;;;;;;;;;2.42;91.19336;99275.39;;;;-81
2021/12/10 07:45:51;;;;;;;;;;;;;;;2.42;91.15039;99280.02;;;;-82
2021/12/10 07:50:53;;;;;;;;;;;;;;;2.42;91.08789;99276.96;;;;-81
2021/12/10 07:55:49;;;;;;;;;;;;;;;2.42;91.02246;99277.13;;;;-82
2021/12/10 08:00:53;;;;;;;;;;;;;;;2.43;91.02441;99279.67;;;;-80
2021/12/10 08:01:31;;;;;;;7.1;2.3;;;;;;;;;;;;;-81
2021/12/10 08:05:52;;;;;;;;;;;;;;;2.44;90.94824;99283.63;;;;-82
2021/12/10 08:10:50;;;;;;;;;;;;;;;2.45;90.94141;99293.34;;;;-81
2021/12/10 08:15:52;;;;;;;;;;;;;;;2.47;90.86816;99285.27;;;;-81
2021/12/10 08:20:49;;;;;;;;;;;;;;;2.47;90.83691;99286.13;;;;-80
2021/12/10 08:25:49;;;;;;;;;;;;;;;2.5;90.72363;99285.56;;;;-82
2021/12/10 08:30:49;;;;;;;;;;;;;;;2.5;90.76953;99286.74;;;;-81
2021/12/10 08:31:31;;;;;;;8.5;2.9;;;;;;;;;;;;;-86
2021/12/10 08:35:53;;;;;;;;;;;;;;;2.51;90.79297;99289.72;;;;-86
2021/12/10 08:40:58;;;;;;;;;;;;;;;2.53;90.7207;99295.44;;;;-85
2021/12/10 08:45:52;;;;;;;;;;;;;;;2.56;90.54297;99296.18;;;;-85
2021/12/10 08:50:49;;;;;;;;;;;;;;;2.59;90.44043;99302.23;;;;-85
2021/12/10 08:55:53;;;;;;;;;;;;;;;2.61;90.43262;99308.38;;;;-83
2021/12/10 09:00:50;;;;;;;;;;;;;;;2.64;90.43848;99321.18;;;;-81
2021/12/10 09:01:32;;;;;;;7.9;2.4;;;;;;;;;;;;;-81
2021/12/10 09:05:50;;;;;;;;;;;;;;;2.64;90.50391;99322.32;;;;-81
2021/12/10 09:10:50;;;;;;;;;;;;;;;2.65;90.55078;99324.91;;;;-82
2021/12/10 09:15:52;;;;;;;;;;;;;;;2.68;90.59961;99335.06;;;;-81
2021/12/10 09:20:51;;;;;;;;;;;;;;;2.7;90.60352;99332.19;;;;-82
2021/12/10 09:25:52;;;;;;;;;;;;;;;2.71;90.63867;99333.7;;;;-82
2021/12/10 09:30:51;;;;;;;;;;;;;;;2.72;90.66406;99344.36;;;;-81
2021/12/10 09:31:26;;;;;;;8.5;2.6;;;;;;;;;;;;;-83
2021/12/10 09:35:48;;;;;;;;;;;;;;;2.74;90.6875;99357.05;;;;-80
2021/12/10 09:40:52;;;;;;;;;;;;;;;2.75;90.72363;99363.68;;;;-80
2021/12/10 09:45:49;;;;;;;;;;;;;;;2.77;90.68262;99362.95;;;;-82
2021/12/10 09:50:51;;;;;;;;;;;;;;;2.79;90.44922;99365.09;;;;-81
2021/12/10 09:55:50;;;;;;;;;;;;;;;2.81;90.54004;99370.3;;;;-80
2021/12/10 10:00:52;;;;;;;;;;;;;;;2.82;90.53125;99370.76;;;;-81
2021/12/10 10:01:26;;;;;;;6.3;2.3;;;;;;;;;;;;;-82
2021/12/10 10:05:49;;;;;;;;;;;;;;;2.85;90.47363;99373.98;;;;-83
2021/12/10 10:10:50;;;;;;;;;;;;;;;2.87;90.29395;99374.03;;;;-84
2021/12/10 10:15:49;;;;;;;;;;;;;;;2.89;90.35156;99379.53;;;;-84
2021/12/10 10:20:51;;;;;;;;;;;;;;;2.92;90.33789;99377.38;;;;-81
2021/12/10 10:25:52;;;;;;;;;;;;;;;2.94;90.34082;99372.66;;;;-81
2021/12/10 10:30:54;;;;;;;;;;;;;;;2.98;90.31641;99366.7;;;;-81
2021/12/10 10:31:26;;;;;;;7.5;2.9;;;;;;;;;;;;;-80
2021/12/10 10:35:50;;;;;;;;;;;;;;;3.02;90.30273;99369.38;;;;-81
2021/12/10 10:40:52;;;;;;;;;;;;;;;3.06;90.25781;99369.97;;;;-82
2021/12/10 10:45:50;;;;;;;;;;;;;;;3.11;90.23438;99372.35;;;;-81
2021/12/10 10:50:50;;;;;;;;;;;;;;;3.15;90.21191;99380.38;;;;-82
2021/12/10 10:55:53;;;;;;;;;;;;;;;3.2;90.13672;99376.96;;;;-80
2021/12/10 11:00:57;;;;;;;;;;;;;;;3.26;90.01563;99371.27;;;;-80
2021/12/10 11:01:28;;;;;;;6.1;2.9;;;;;;;;;;;;;-80
2021/12/10 11:05:55;;;;;;;;;;;;;;;3.31;89.95117;99373.42;;;;-82
2021/12/10 11:10:58;;;;;;;;;;;;;;;3.35;89.97168;99369.08;;;;-81
2021/12/10 11:16:00;;;;;;;;;;;;;;;3.38;89.89063;99373.7;;;;-81
2021/12/10 11:20:49;;;;;;;;;;;;;;;3.43;89.76074;99383.69;;;;-77
2021/12/10 11:25:53;;;;;;;;;;;;;;;3.48;89.60742;99382.06;;;;-83
2021/12/10 11:30:50;;;;;;;;;;;;;;;3.51;89.54785;99387.44;;;;-82
2021/12/10 11:31:22;;;;;;;9;3.3;;;;;;;;;;;;;-82
2021/12/10 11:35:51;;;;;;;;;;;;;;;3.55;89.35156;99393.2;;;;-81
2021/12/10 11:40:56;;;;;;;;;;;;;;;3.58;89.30273;99401.16;;;;-80
2021/12/10 11:46:04;;;;;;;;;;;;;;;3.6;89.23047;99398.27;;;;-81
2021/12/10 11:50:50;;;;;;;;;;;;;;;3.62;89.21289;99398.27;;;;-81
2021/12/10 11:56:03;;;;;;;;;;;;;;;3.64;89.14258;99397.38;;;;-81
2021/12/10 12:00:51;;;;;;;;;;;;;;;3.67;89.15918;99400.14;;;;-82
2021/12/10 12:01:24;;;;;;;8.4;3.3;;;;;;;;;;;;;-83
2021/12/10 12:05:59;;;;;;;;;;;;;;;3.7;88.96875;99410.77;;;;-82
2021/12/10 12:10:51;;;;;;;;;;;;;;;3.72;88.88574;99416.72;;;;-82
2021/12/10 12:15:50;;;;;;;;;;;;;;;3.74;88.93457;99420.78;;;;-83
2021/12/10 12:20:58;;;;;;;;;;;;;;;3.76;88.89355;99421.58;;;;-82
2021/12/10 12:25:49;;;;;;;;;;;;;;;3.77;88.86426;99422.11;;;;-82
2021/12/10 12:31:22;;;;;;;7.8;3.2;;;;;;;;;;;;;-81
2021/12/10 12:32:06;;;;;;;;;;;;;;;3.8;89.20703;99423.07;;;;-81
2021/12/10 12:37:04;;;;;;;;;;;;;;;3.8;89.1543;99428.13;;;;-81
2021/12/10 12:42:17;;;;;;;;;;;;;;;3.82;89.15625;99434.12;;;;-82
2021/12/10 12:47:06;;;;;;;;;;;;;;;3.82;89.13672;99436.11;;;;-82
2021/12/10 12:52:14;;;;;;;;;;;;;;;3.83;89.13672;99443.43;;;;-81
2021/12/10 12:57:05;;;;;;;;;;;;;;;3.83;89.14746;99453.72;;;;-82
2021/12/10 13:01:23;;;;;;;6.1;2.9;;;;;;;;;;;;;-82
2021/12/10 13:02:08;;;;;;;;;;;;;;;3.83;89.12598;99462.14;;;;-83
2021/12/10 13:07:04;;;;;;;;;;;;;;;3.83;89.07129;99462.63;;;;-81
2021/12/10 13:12:14;;;;;;;;;;;;;;;3.84;89.11816;99478.67;;;;-83
2021/12/10 13:17:04;;;;;;;;;;;;;;;3.86;89.10938;99492.42;;;;-82
2021/12/10 13:22:08;;;;;;;;;;;;;;;3.85;89.1748;99498.98;;;;-82
2021/12/10 13:27:03;;;;;;;;;;;;;;;3.84;89.21582;99507.63;;;;-82
2021/12/10 13:31:18;;;;;;;5.8;2.7;;;;;;;;;;;;;-82
2021/12/10 13:32:05;;;;;;;;;;;;;;;3.83;89.08203;99513.07;;;;-83
2021/12/10 13:37:07;;;;;;;;;;;;;;;3.82;89.17969;99513.66;;;;-81
2021/12/10 13:42:05;;;;;;;;;;;;;;;3.82;89.27539;99520.15;;;;-81
2021/12/10 13:47:12;;;;;;;;;;;;;;;3.8;89.30664;99526.73;;;;-81
2021/12/10 13:52:25;;;;;;;;;;;;;;;3.79;89.37891;99535.95;;;;-83
2021/12/10 13:57:05;;;;;;;;;;;;;;;3.77;89.47266;99534.51;;;;-83
2021/12/10 14:01:20;;;;;;;8.2;3.3;;;;;;;;;;;;;-81
2021/12/10 14:02:08;;;;;;;;;;;;;;;3.76;89.54688;99538.75;;;;-82
2021/12/10 14:07:11;;;;;;;;;;;;;;;3.75;89.55566;99544.31;;;;-82
2021/12/10 14:12:26;;;;;;;;;;;;;;;3.74;89.6084;99552.11;;;;-82
2021/12/10 14:17:08;;;;;;;;;;;;;;;3.74;89.63867;99559.91;;;;-81
2021/12/10 14:22:07;;;;;;;;;;;;;;;3.73;89.69141;99566.83;;;;-81
2021/12/10 14:27:30;;;;;;;;;;;;;;;3.69;89.71582;99574.82;;;;-83
2021/12/10 14:31:33;;;;;;;5.8;2.8;;;;;;;;;;;;;-81
2021/12/10 14:32:04;;;;;;;;;;;;;;;3.71;89.77441;99594.75;;;;-82
2021/12/10 14:37:09;;;;;;;;;;;;;;;3.7;89.79395;99604.17;;;;-81
2021/12/10 14:42:23;;;;;;;;;;;;;;;3.68;89.80078;99611.72;;;;-82
2021/12/10 14:47:04;;;;;;;;;;;;;;;3.68;89.84473;99628.86;;;;-82
2021/12/10 14:52:20;;;;;;;;;;;;;;;3.66;89.88281;99640.37;;;;-82
2021/12/10 14:57:05;;;;;;;;;;;;;;;3.65;89.88281;99652.17;;;;-82
2021/12/10 15:01:24;;;;;;;6.8;2.9;;;;;;;;;;;;;-82
2021/12/10 15:02:11;;;;;;;;;;;;;;;3.63;89.89844;99663.19;;;;-82
2021/12/10 15:07:07;;;;;;;;;;;;;;;3.61;89.91602;99677.49;;;;-81
2021/12/10 15:12:09;;;;;;;;;;;;;;;3.6;89.93848;99684.37;;;;-82
2021/12/10 15:17:09;;;;;;;;;;;;;;;3.58;89.94336;99691.79;;;;-82
2021/12/10 15:22:03;;;;;;;;;;;;;;;3.56;89.9502;99691.47;;;;-81
2021/12/10 15:27:08;;;;;;;;;;;;;;;3.55;89.95898;99697.5;;;;-83
2021/12/10 15:31:14;;;;;;;6.6;2.7;;;;;;;;;;;;;-82
2021/12/10 15:32:12;;;;;;;;;;;;;;;3.53;89.98828;99703.65;;;;-83
2021/12/10 15:37:05;;;;;;;;;;;;;;;3.52;89.97363;99714.11;;;;-82
2021/12/10 15:42:03;;;;;;;;;;;;;;;3.51;89.98242;99727.11;;;;-84
2021/12/10 15:47:13;;;;;;;;;;;;;;;3.49;89.98926;99735.77;;;;-85
2021/12/10 15:52:06;;;;;;;;;;;;;;;3.48;89.9873;99750.45;;;;-85
2021/12/10 16:01:16;;;;;;;6.6;2.6;;;;;;;;;;;;;-82
2021/12/10 16:02:04;;;;;;;;;;;;;;;3.45;90.01465;99774.03;;;;-80
2021/12/10 16:07:05;;;;;;;;;;;;;;;3.48;89.80273;99779.98;;;;-81
2021/12/10 16:12:02;;;;;;;;;;;;;;;3.45;89.85156;99791;;;;-83
2021/12/10 16:22:08;;;;;;;;;;;;;;;3.42;89.91992;99812.3;;;;-82
2021/12/10 16:27:04;;;;;;;;;;;;;;;3.41;89.96094;99828.95;;;;-81
2021/12/10 16:31:14;;;;;;;8.4;2.7;;;;;;;;;;;;;-82
2021/12/10 16:32:13;;;;;;;;;;;;;;;3.39;89.9375;99845.94;;;;-83
2021/12/10 16:37:17;;;;;;;;;;;;;;;3.38;89.95605;99855.67;;;;-82
2021/12/10 16:42:04;;;;;;;;;;;;;;;3.37;89.93164;99864.63;;;;-81
2021/12/10 16:47:05;;;;;;;;;;;;;;;3.37;89.97559;99872.91;;;;-81
2021/12/10 16:52:07;;;;;;;;;;;;;;;3.35;89.96094;99878.8;;;;-82
2021/12/10 16:57:04;;;;;;;;;;;;;;;3.34;89.95898;99891.05;;;;-82
2021/12/10 17:01:12;;;;;;;6;2.8;;;;;;;;;;;;;-82
2021/12/10 17:02:05;;;;;;;;;;;;;;;3.32;89.96582;99903.22;;;;-80
2021/12/10 17:07:04;;;;;;;;;;;;;;;3.32;89.96582;99914.21;;;;-83
2021/12/10 17:12:04;;;;;;;;;;;;;;;3.31;89.97266;99923.75;;;;-82
2021/12/10 17:17:03;;;;;;;;;;;;;;;3.31;89.96191;99934.03;;;;-83
2021/12/10 17:22:04;;;;;;;;;;;;;;;3.3;89.96191;99944.69;;;;-79
2021/12/10 17:27:13;;;;;;;;;;;;;;;3.28;89.98926;99954.05;;;;-85
2021/12/10 17:31:09;;;;;;;7.7;3.2;;;;;;;;;;;;;-83
2021/12/10 17:32:07;;;;;;;;;;;;;;;3.27;89.9873;99955.41;;;;-80
2021/12/10 17:37:06;;;;;;;;;;;;;;;3.26;90.00488;99968.72;;;;-83
2021/12/10 17:42:03;;;;;;;;;;;;;;;3.26;90.01563;99976.39;;;;-82
2021/12/10 17:47:05;;;;;;;;;;;;;;;3.26;90.02637;99985.03;;;;-82
2021/12/10 17:52:03;;;;;;;;;;;;;;;3.25;90.02637;99998.86;;;;-82
2021/12/10 17:57:06;;;;;;;;;;;;;;;3.24;90.04492;100008;;;;-81
2021/12/10 18:01:09;;;;;;;6.7;3.2;;;;;;;;;;;;;-82
2021/12/10 18:02:13;;;;;;;;;;;;;;;3.24;90.04492;100017.8;;;;-81
2021/12/10 18:07:04;;;;;;;;;;;;;;;3.22;90.05371;100026.7;;;;-82
2021/12/10 18:12:10;;;;;;;;;;;;;;;3.21;90.0498;100036.3;;;;-82
2021/12/10 18:17:02;;;;;;;;;;;;;;;3.2;90.03711;100045.9;;;;-82
2021/12/10 18:22:03;;;;;;;;;;;;;;;3.15;89.98438;100050.4;;;;-81
2021/12/10 18:27:10;;;;;;;;;;;;;;;3.13;90.00195;100060.5;;;;-82
2021/12/10 18:31:09;;;;;;;5.6;3;;;;;;;;;;;;;-84
2021/12/10 18:32:04;;;;;;;;;;;;;;;3.08;89.93652;100072.1;;;;-82
2021/12/10 18:37:06;;;;;;;;;;;;;;;3.06;89.93262;100083;;;;-82
2021/12/10 18:42:16;;;;;;;;;;;;;;;3.01;89.83398;100093.1;;;;-82
2021/12/10 18:47:04;;;;;;;;;;;;;;;2.96;89.78125;100096.3;;;;-82
2021/12/10 18:52:04;;;;;;;;;;;;;;;2.89;89.71191;100099.1;;;;-81
2021/12/10 18:57:06;;;;;;;;;;;;;;;2.86;89.68457;100103.5;;;;-82
2021/12/10 19:01:07;;;;;;;7.2;3;;;;;;;;;;;;;-81
2021/12/10 19:02:04;;;;;;;;;;;;;;;2.8;89.63867;100111.5;;;;-82
2021/12/10 19:07:05;;;;;;;;;;;;;;;2.75;89.60645;100125.5;;;;-82
2021/12/10 19:12:03;;;;;;;;;;;;;;;2.69;89.50781;100134.8;;;;-81
2021/12/10 19:17:04;;;;;;;;;;;;;;;2.62;89.52539;100140.9;;;;-81
2021/12/10 19:22:04;;;;;;;;;;;;;;;2.56;89.52441;100152.6;;;;-81
2021/12/10 19:27:05;;;;;;;;;;;;;;;2.49;89.52051;100164.7;;;;-81
2021/12/10 19:31:04;;;;;;;5.9;3.1;;;;;;;;;;;;;-80
2021/12/10 19:32:06;;;;;;;;;;;;;;;2.43;89.62793;100179.6;;;;-80
2021/12/10 19:37:04;;;;;;;;;;;;;;;2.4;89.66406;100193.6;;;;-81
2021/12/10 19:42:08;;;;;;;;;;;;;;;2.31;89.56934;100198.6;;;;-81
2021/12/10 19:47:05;;;;;;;;;;;;;;;2.26;89.68945;100205.8;;;;-81
2021/12/10 19:52:04;;;;;;;;;;;;;;;2.22;89.61523;100215.5;;;;-82
2021/12/10 19:57:05;;;;;;;;;;;;;;;2.16;89.61426;100224.1;;;;-81
2021/12/10 20:01:05;;;;;;;8.3;3.2;;;;;;;;;;;;;-82
2021/12/10 20:02:05;;;;;;;;;;;;;;;2.08;89.74023;100237.3;;;;-82
2021/12/10 20:07:05;;;;;;;;;;;;;;;2.04;89.78418;100250.7;;;;-82
2021/12/10 20:12:05;;;;;;;;;;;;;;;1.98;89.78418;100261.4;;;;-81
2021/12/10 20:17:04;;;;;;;;;;;;;;;1.93;89.87012;100268.8;;;;-81
2021/12/10 20:22:03;;;;;;;;;;;;;;;1.89;89.9375;100282.1;;;;-81
2021/12/10 20:27:05;;;;;;;;;;;;;;;1.87;89.90137;100288.1;;;;-80
2021/12/10 20:31:04;;;;;;;9.5;3.6;;;;;;;;;;;;;-82
2021/12/10 20:32:04;;;;;;;;;;;;;;;1.83;89.95703;100302.4;;;;-84
2021/12/10 20:37:06;;;;;;;;;;;;;;;1.77;89.9873;100315.8;;;;-82
2021/12/10 20:42:08;;;;;;;;;;;;;;;1.72;90.04199;100328.8;;;;-81
2021/12/10 20:47:08;;;;;;;;;;;;;;;1.67;90.07617;100337.1;;;;-82
2021/12/10 20:52:04;;;;;;;;;;;;;;;1.64;90.10059;100343.5;;;;-81
2021/12/10 21:02:03;;;;;;;;;;;;;;;1.55;90.08105;100352.8;;;;-81
2021/12/10 21:07:03;;;;;;;;;;;;;;;1.51;90.19238;100366.1;;;;-81
2021/12/10 21:12:03;;;;;;;;;;;;;;;1.45;90.09277;100378.2;;;;-82
2021/12/10 21:17:04;;;;;;;;;;;;;;;1.42;90.07422;100380.6;;;;-84
2021/12/10 21:22:05;;;;;;;;;;;;;;;1.35;89.99609;100392.2;;;;-84
2021/12/10 21:27:04;;;;;;;;;;;;;;;1.3;90.08203;100398.2;;;;-81
2021/12/10 21:31:01;;;;;;;8.2;3.7;;;;;;;;;;;;;-81
2021/12/10 21:32:06;;;;;;;;;;;;;;;1.25;90.12695;100408.6;;;;-81
2021/12/10 21:42:05;;;;;;;;;;;;;;;1.17;90.16309;100429;;;;-82
2021/12/10 21:47:06;;;;;;;;;;;;;;;1.15;90.16797;100428;;;;-81
2021/12/10 21:52:03;;;;;;;;;;;;;;;1.12;90.25098;100438.8;;;;-81
2021/12/10 21:57:04;;;;;;;;;;;;;;;1.12;90.30273;100453.5;;;;-81
2021/12/10 22:01:01;;;;;;;10.2;4.1;;;;;;;;;;;;;-81
2021/12/10 22:02:04;;;;;;;;;;;;;;;1.1;90.35254;100457.1;;;;-82
2021/12/10 22:07:04;;;;;;;;;;;;;;;1.08;90.40527;100472.1;;;;-81
2021/12/10 22:12:04;;;;;;;;;;;;;;;1.07;90.45703;100483.5;;;;-82
2021/12/10 22:17:05;;;;;;;;;;;;;;;1.07;90.4873;100500.6;;;;-80
2021/12/10 22:22:04;;;;;;;;;;;;;;;1.06;90.50879;100512.4;;;;-81
2021/12/10 22:27:07;;;;;;;;;;;;;;;1.08;90.55371;100517.9;;;;-80
2021/12/10 22:30:56;;;;;;;7.9;4;;;;;;;;;;;;;-81
2021/12/10 22:32:06;;;;;;;;;;;;;;;1.09;90.63184;100523.5;;;;-81
2021/12/10 22:37:05;;;;;;;;;;;;;;;1.09;90.73926;100519.9;;;;-81
2021/12/10 22:42:05;;;;;;;;;;;;;;;1.09;90.71777;100529.8;;;;-83
2021/12/10 22:47:04;;;;;;;;;;;;;;;1.11;90.76465;100540.1;;;;-84
2021/12/10 22:52:04;;;;;;;;;;;;;;;1.11;90.80957;100547.1;;;;-84
2021/12/10 22:57:06;;;;;;;;;;;;;;;1.13;90.88965;100556.2;;;;-83
2021/12/10 23:01:05;;;;;;;8.6;4;;;;;;;;;;;;;-85
2021/12/10 23:02:04;;;;;;;;;;;;;;;1.14;90.87988;100569;;;;-85
2021/12/10 23:07:16;;;;;;;;;;;;;;;1.15;90.94727;100580.9;;;;-82
2021/12/10 23:12:04;;;;;;;;;;;;;;;1.16;90.92773;100591.9;;;;-84
2021/12/10 23:17:05;;;;;;;;;;;;;;;1.18;90.9873;100595.5;;;;-84
2021/12/10 23:21:59;;;;;;;;;;;;;;;1.2;91.03418;100597.9;;;;-84
2021/12/10 23:27:06;;;;;;;;;;;;;;;1.23;91.08105;100615.1;;;;-84
2021/12/10 23:30:57;;;;;;;10.1;4.2;;;;;;;;;;;;;-85
2021/12/10 23:32:06;;;;;;;;;;;;;;;1.25;91.08691;100623.1;;;;-85
2021/12/10 23:37:02;;;;;;;;;;;;;;;1.27;91.05859;100631.8;;;;-85
2021/12/10 23:42:07;;;;;;;;;;;;;;;1.27;91.09082;100645.9;;;;-84
2021/12/10 23:47:06;;;;;;;;;;;;;;;1.28;91.0625;100649.3;;;;-84
2021/12/10 23:52:05;;;;;;;;;;;;;;;1.27;91.08008;100656.7;;;;-84
2021/12/10 23:57:02;;;;;;;;;;;;;;;1.29;91.07324;100667.1;;;;-82
